sensor_id;sensor_type;location;lat;lon;timestamp;temperature;humidity
18408;DHT22;9330;52.210;21.174;2023-05-23T00:01:05;10.50;99.90
18408;DHT22;9330;52.210;21.174;2023-05-23T00:03:32;10.50;99.90
18408;DHT22;9330;52.210;21.174;2023-05-23T00:06:00;10.50;99.90
18408;DHT22;9330;52.210;21.174;2023-05-23T00:08:29;10.50;99.90
18408;DHT22;9330;52.210;21.174;2023-05-23T00:10:57;10.50;99.90
18408;DHT22;9330;52.210;21.174;2023-05-23T00:13:23;10.40;99.90
18408;DHT22;9330;52.210;21.174;2023-05-23T00:15:51;10.40;99.90
18408;DHT22;9330;52.210;21.174;2023-05-23T00:18:18;10.40;99.90
18408;DHT22;9330;52.210;21.174;2023-05-23T00:20:45;10.50;99.90
18408;DHT22;9330;52.210;21.174;2023-05-23T00:23:12;10.50;99.90
18408;DHT22;9330;52.210;21.174;2023-05-23T00:25:44;10.40;99.90
18408;DHT22;9330;52.210;21.174;2023-05-23T00:28:14;10.50;99.90
18408;DHT22;9330;52.210;21.174;2023-05-23T00:30:42;10.30;99.90
18408;DHT22;9330;52.210;21.174;2023-05-23T00:33:09;10.30;99.90
18408;DHT22;9330;52.210;21.174;2023-05-23T00:35:38;10.30;99.90
18408;DHT22;9330;52.210;21.174;2023-05-23T00:38:05;10.30;99.90
18408;DHT22;9330;52.210;21.174;2023-05-23T00:40:32;10.30;99.90
18408;DHT22;9330;52.210;21.174;2023-05-23T00:42:59;10.20;99.90
18408;DHT22;9330;52.210;21.174;2023-05-23T00:45:27;10.20;99.90
18408;DHT22;9330;52.210;21.174;2023-05-23T00:47:54;10.10;99.90
18408;DHT22;9330;52.210;21.174;2023-05-23T00:50:23;10.30;99.90
18408;DHT22;9330;52.210;21.174;2023-05-23T00:52:54;10.10;99.90
18408;DHT22;9330;52.210;21.174;2023-05-23T00:55:22;10.10;99.90
18408;DHT22;9330;52.210;21.174;2023-05-23T00:57:49;10.10;99.90
18408;DHT22;9330;52.210;21.174;2023-05-23T01:00:19;10.00;99.90
18408;DHT22;9330;52.210;21.174;2023-05-23T01:02:47;10.00;99.90
18408;DHT22;9330;52.210;21.174;2023-05-23T01:05:16;10.00;99.90
18408;DHT22;9330;52.210;21.174;2023-05-23T01:07:43;9.90;99.90
18408;DHT22;9330;52.210;21.174;2023-05-23T01:10:12;10.10;99.90
18408;DHT22;9330;52.210;21.174;2023-05-23T01:12:45;10.00;99.90
18408;DHT22;9330;52.210;21.174;2023-05-23T01:15:17;9.90;99.90
18408;DHT22;9330;52.210;21.174;2023-05-23T01:17:50;9.90;99.90
18408;DHT22;9330;52.210;21.174;2023-05-23T01:20:21;9.80;99.90
18408;DHT22;9330;52.210;21.174;2023-05-23T01:23:04;9.80;99.90
18408;DHT22;9330;52.210;21.174;2023-05-23T01:25:45;9.80;99.90
18408;DHT22;9330;52.210;21.174;2023-05-23T01:28:18;9.80;99.90
18408;DHT22;9330;52.210;21.174;2023-05-23T01:30:47;9.90;99.90
18408;DHT22;9330;52.210;21.174;2023-05-23T01:33:19;9.80;99.90
18408;DHT22;9330;52.210;21.174;2023-05-23T01:35:48;9.70;99.90
18408;DHT22;9330;52.210;21.174;2023-05-23T01:38:15;9.60;99.90
18408;DHT22;9330;52.210;21.174;2023-05-23T01:40:42;9.70;99.90
18408;DHT22;9330;52.210;21.174;2023-05-23T01:43:09;9.60;99.90
18408;DHT22;9330;52.210;21.174;2023-05-23T01:45:38;9.50;99.90
18408;DHT22;9330;52.210;21.174;2023-05-23T01:48:05;9.50;99.90
18408;DHT22;9330;52.210;21.174;2023-05-23T01:50:34;9.50;99.90
18408;DHT22;9330;52.210;21.174;2023-05-23T01:53:01;9.50;99.90
18408;DHT22;9330;52.210;21.174;2023-05-23T01:55:28;9.50;99.90
18408;DHT22;9330;52.210;21.174;2023-05-23T01:57:56;9.40;99.90
18408;DHT22;9330;52.210;21.174;2023-05-23T02:00:23;9.60;99.90
18408;DHT22;9330;52.210;21.174;2023-05-23T02:02:52;9.60;99.90
18408;DHT22;9330;52.210;21.174;2023-05-23T02:05:18;9.40;99.90
18408;DHT22;9330;52.210;21.174;2023-05-23T02:07:45;9.50;99.90
18408;DHT22;9330;52.210;21.174;2023-05-23T02:10:12;9.40;99.90
18408;DHT22;9330;52.210;21.174;2023-05-23T02:12:39;9.30;99.90
18408;DHT22;9330;52.210;21.174;2023-05-23T02:15:07;9.30;99.90
18408;DHT22;9330;52.210;21.174;2023-05-23T02:17:34;9.30;99.90
18408;DHT22;9330;52.210;21.174;2023-05-23T02:20:03;9.30;99.90
18408;DHT22;9330;52.210;21.174;2023-05-23T02:22:31;9.20;99.90
18408;DHT22;9330;52.210;21.174;2023-05-23T02:24:57;9.20;99.90
18408;DHT22;9330;52.210;21.174;2023-05-23T02:27:24;9.30;99.90
18408;DHT22;9330;52.210;21.174;2023-05-23T02:29:51;9.20;99.90
18408;DHT22;9330;52.210;21.174;2023-05-23T02:32:18;9.10;99.90
18408;DHT22;9330;52.210;21.174;2023-05-23T02:34:45;9.10;99.90
18408;DHT22;9330;52.210;21.174;2023-05-23T02:37:16;9.10;99.90
18408;DHT22;9330;52.210;21.174;2023-05-23T02:39:43;9.20;99.90
18408;DHT22;9330;52.210;21.174;2023-05-23T02:42:09;9.30;99.90
18408;DHT22;9330;52.210;21.174;2023-05-23T02:44:37;9.10;99.90
18408;DHT22;9330;52.210;21.174;2023-05-23T02:47:04;9.10;99.90
18408;DHT22;9330;52.210;21.174;2023-05-23T02:49:32;9.10;99.90
18408;DHT22;9330;52.210;21.174;2023-05-23T02:51:58;9.10;99.90
18408;DHT22;9330;52.210;21.174;2023-05-23T02:54:27;9.10;99.90
18408;DHT22;9330;52.210;21.174;2023-05-23T02:56:53;9.00;99.90
18408;DHT22;9330;52.210;21.174;2023-05-23T02:59:20;9.10;99.90
18408;DHT22;9330;52.210;21.174;2023-05-23T03:01:47;9.00;99.90
18408;DHT22;9330;52.210;21.174;2023-05-23T03:04:15;9.00;99.90
18408;DHT22;9330;52.210;21.174;2023-05-23T03:06:42;9.00;99.90
18408;DHT22;9330;52.210;21.174;2023-05-23T03:09:09;9.00;99.90
18408;DHT22;9330;52.210;21.174;2023-05-23T03:11:37;9.10;99.90
18408;DHT22;9330;52.210;21.174;2023-05-23T03:14:04;9.00;99.90
18408;DHT22;9330;52.210;21.174;2023-05-23T03:16:31;9.00;99.90
18408;DHT22;9330;52.210;21.174;2023-05-23T03:18:58;9.10;99.90
18408;DHT22;9330;52.210;21.174;2023-05-23T03:21:25;9.10;99.90
18408;DHT22;9330;52.210;21.174;2023-05-23T03:23:51;9.10;99.90
18408;DHT22;9330;52.210;21.174;2023-05-23T03:26:18;9.20;99.90
18408;DHT22;9330;52.210;21.174;2023-05-23T03:28:47;9.10;99.90
18408;DHT22;9330;52.210;21.174;2023-05-23T03:31:14;9.10;99.90
18408;DHT22;9330;52.210;21.174;2023-05-23T03:33:41;9.20;99.90
18408;DHT22;9330;52.210;21.174;2023-05-23T03:36:08;9.30;99.90
18408;DHT22;9330;52.210;21.174;2023-05-23T03:38:35;9.20;99.90
18408;DHT22;9330;52.210;21.174;2023-05-23T03:41:02;9.40;99.90
18408;DHT22;9330;52.210;21.174;2023-05-23T03:43:29;9.50;99.90
18408;DHT22;9330;52.210;21.174;2023-05-23T03:45:57;9.50;99.90
18408;DHT22;9330;52.210;21.174;2023-05-23T03:48:25;9.50;99.90
18408;DHT22;9330;52.210;21.174;2023-05-23T03:50:52;9.70;99.90
18408;DHT22;9330;52.210;21.174;2023-05-23T03:53:18;9.70;99.90
18408;DHT22;9330;52.210;21.174;2023-05-23T03:55:45;9.80;99.90
18408;DHT22;9330;52.210;21.174;2023-05-23T03:58:12;9.90;99.90
18408;DHT22;9330;52.210;21.174;2023-05-23T04:00:39;10.00;99.90
18408;DHT22;9330;52.210;21.174;2023-05-23T04:03:07;10.00;99.90
18408;DHT22;9330;52.210;21.174;2023-05-23T04:05:36;10.10;99.90
18408;DHT22;9330;52.210;21.174;2023-05-23T04:08:02;10.30;99.90
18408;DHT22;9330;52.210;21.174;2023-05-23T04:10:29;10.30;99.90
18408;DHT22;9330;52.210;21.174;2023-05-23T04:12:56;10.50;99.90
18408;DHT22;9330;52.210;21.174;2023-05-23T04:15:23;10.50;99.90
18408;DHT22;9330;52.210;21.174;2023-05-23T04:17:50;10.70;99.90
18408;DHT22;9330;52.210;21.174;2023-05-23T04:20:18;10.80;99.90
18408;DHT22;9330;52.210;21.174;2023-05-23T04:22:45;10.90;99.90
18408;DHT22;9330;52.210;21.174;2023-05-23T04:25:12;11.00;99.90
18408;DHT22;9330;52.210;21.174;2023-05-23T04:27:39;11.20;99.90
18408;DHT22;9330;52.210;21.174;2023-05-23T04:30:06;11.30;99.90
18408;DHT22;9330;52.210;21.174;2023-05-23T04:32:34;11.40;99.90
18408;DHT22;9330;52.210;21.174;2023-05-23T04:35:02;11.60;99.90
18408;DHT22;9330;52.210;21.174;2023-05-23T04:37:31;11.70;99.90
18408;DHT22;9330;52.210;21.174;2023-05-23T04:39:58;11.90;99.90
18408;DHT22;9330;52.210;21.174;2023-05-23T04:42:25;12.00;99.90
18408;DHT22;9330;52.210;21.174;2023-05-23T04:44:53;12.20;99.90
18408;DHT22;9330;52.210;21.174;2023-05-23T04:47:22;12.40;99.90
18408;DHT22;9330;52.210;21.174;2023-05-23T04:49:53;12.50;99.90
18408;DHT22;9330;52.210;21.174;2023-05-23T04:52:21;12.90;99.90
18408;DHT22;9330;52.210;21.174;2023-05-23T04:54:49;13.00;99.90
18408;DHT22;9330;52.210;21.174;2023-05-23T04:57:18;13.20;99.90
18408;DHT22;9330;52.210;21.174;2023-05-23T04:59:45;13.40;99.90
18408;DHT22;9330;52.210;21.174;2023-05-23T05:02:12;13.60;99.90
18408;DHT22;9330;52.210;21.174;2023-05-23T05:04:39;13.80;99.90
18408;DHT22;9330;52.210;21.174;2023-05-23T05:07:05;14.20;99.90
18408;DHT22;9330;52.210;21.174;2023-05-23T05:09:32;14.30;99.90
18408;DHT22;9330;52.210;21.174;2023-05-23T05:12:00;14.50;99.90
18408;DHT22;9330;52.210;21.174;2023-05-23T05:14:27;14.70;99.90
18408;DHT22;9330;52.210;21.174;2023-05-23T05:16:54;14.90;99.90
18408;DHT22;9330;52.210;21.174;2023-05-23T05:19:22;15.10;99.90
18408;DHT22;9330;52.210;21.174;2023-05-23T05:21:49;15.30;99.90
18408;DHT22;9330;52.210;21.174;2023-05-23T05:24:16;15.50;99.90
18408;DHT22;9330;52.210;21.174;2023-05-23T05:26:45;15.70;99.90
18408;DHT22;9330;52.210;21.174;2023-05-23T05:29:13;15.90;99.90
18408;DHT22;9330;52.210;21.174;2023-05-23T05:31:40;16.10;99.90
18408;DHT22;9330;52.210;21.174;2023-05-23T05:34:07;16.20;99.90
18408;DHT22;9330;52.210;21.174;2023-05-23T05:36:34;16.40;99.90
18408;DHT22;9330;52.210;21.174;2023-05-23T05:39:01;16.70;99.90
18408;DHT22;9330;52.210;21.174;2023-05-23T05:41:28;16.80;99.90
18408;DHT22;9330;52.210;21.174;2023-05-23T05:43:55;17.00;99.90
18408;DHT22;9330;52.210;21.174;2023-05-23T05:46:23;17.20;99.90
18408;DHT22;9330;52.210;21.174;2023-05-23T05:48:50;17.30;99.90
18408;DHT22;9330;52.210;21.174;2023-05-23T05:51:16;17.60;99.90
18408;DHT22;9330;52.210;21.174;2023-05-23T05:53:43;17.70;99.90
18408;DHT22;9330;52.210;21.174;2023-05-23T05:56:10;17.90;99.90
18408;DHT22;9330;52.210;21.174;2023-05-23T05:58:38;18.10;99.90
18408;DHT22;9330;52.210;21.174;2023-05-23T06:01:04;18.30;99.90
18408;DHT22;9330;52.210;21.174;2023-05-23T06:03:33;18.50;99.90
18408;DHT22;9330;52.210;21.174;2023-05-23T06:05:59;18.60;99.90
18408;DHT22;9330;52.210;21.174;2023-05-23T06:08:26;18.80;99.90
18408;DHT22;9330;52.210;21.174;2023-05-23T06:10:53;18.90;99.90
18408;DHT22;9330;52.210;21.174;2023-05-23T06:13:21;19.10;99.90
18408;DHT22;9330;52.210;21.174;2023-05-23T06:15:51;19.30;99.90
18408;DHT22;9330;52.210;21.174;2023-05-23T06:18:17;19.50;99.90
18408;DHT22;9330;52.210;21.174;2023-05-23T06:20:45;19.70;99.90
18408;DHT22;9330;52.210;21.174;2023-05-23T06:23:12;19.80;97.90
18408;DHT22;9330;52.210;21.174;2023-05-23T06:25:39;20.00;95.10
18408;DHT22;9330;52.210;21.174;2023-05-23T06:28:06;20.10;96.10
18408;DHT22;9330;52.210;21.174;2023-05-23T06:30:33;20.30;98.70
18408;DHT22;9330;52.210;21.174;2023-05-23T06:33:00;20.50;97.90
18408;DHT22;9330;52.210;21.174;2023-05-23T06:35:27;20.60;94.50
18408;DHT22;9330;52.210;21.174;2023-05-23T06:37:55;20.70;93.30
18408;DHT22;9330;52.210;21.174;2023-05-23T06:40:22;20.90;99.90
18408;DHT22;9330;52.210;21.174;2023-05-23T06:42:49;21.10;98.70
18408;DHT22;9330;52.210;21.174;2023-05-23T06:45:16;21.20;94.00
18408;DHT22;9330;52.210;21.174;2023-05-23T06:47:43;21.40;83.00
18408;DHT22;9330;52.210;21.174;2023-05-23T06:50:12;21.50;87.80
18408;DHT22;9330;52.210;21.174;2023-05-23T06:52:39;21.70;82.20
18408;DHT22;9330;52.210;21.174;2023-05-23T06:55:09;21.90;82.10
18408;DHT22;9330;52.210;21.174;2023-05-23T06:57:38;22.00;72.50
18408;DHT22;9330;52.210;21.174;2023-05-23T07:00:06;22.00;64.10
18408;DHT22;9330;52.210;21.174;2023-05-23T07:02:33;22.10;59.80
18408;DHT22;9330;52.210;21.174;2023-05-23T07:05:00;22.30;72.60
18408;DHT22;9330;52.210;21.174;2023-05-23T07:07:27;22.40;69.10
18408;DHT22;9330;52.210;21.174;2023-05-23T07:09:54;22.60;63.70
18408;DHT22;9330;52.210;21.174;2023-05-23T07:12:22;22.60;56.10
18408;DHT22;9330;52.210;21.174;2023-05-23T07:14:49;22.60;54.50
18408;DHT22;9330;52.210;21.174;2023-05-23T07:17:16;22.70;56.60
18408;DHT22;9330;52.210;21.174;2023-05-23T07:19:42;22.80;51.30
18408;DHT22;9330;52.210;21.174;2023-05-23T07:22:09;22.80;52.20
18408;DHT22;9330;52.210;21.174;2023-05-23T07:24:36;22.80;54.00
18408;DHT22;9330;52.210;21.174;2023-05-23T07:27:03;22.90;52.90
18408;DHT22;9330;52.210;21.174;2023-05-23T07:29:32;23.10;52.80
18408;DHT22;9330;52.210;21.174;2023-05-23T07:31:59;23.20;55.40
18408;DHT22;9330;52.210;21.174;2023-05-23T07:34:26;23.20;49.10
18408;DHT22;9330;52.210;21.174;2023-05-23T07:36:52;23.40;48.90
18408;DHT22;9330;52.210;21.174;2023-05-23T07:39:19;23.50;48.50
18408;DHT22;9330;52.210;21.174;2023-05-23T07:41:47;23.50;50.40
18408;DHT22;9330;52.210;21.174;2023-05-23T07:44:18;23.60;52.20
18408;DHT22;9330;52.210;21.174;2023-05-23T07:46:46;23.70;48.50
18408;DHT22;9330;52.210;21.174;2023-05-23T07:49:13;23.70;46.10
18408;DHT22;9330;52.210;21.174;2023-05-23T07:51:40;23.70;47.30
18408;DHT22;9330;52.210;21.174;2023-05-23T07:54:07;23.60;47.30
18408;DHT22;9330;52.210;21.174;2023-05-23T07:56:34;23.70;44.20
18408;DHT22;9330;52.210;21.174;2023-05-23T07:59:02;23.70;42.90
18408;DHT22;9330;52.210;21.174;2023-05-23T08:01:29;23.80;43.80
18408;DHT22;9330;52.210;21.174;2023-05-23T08:03:58;23.80;43.00
18408;DHT22;9330;52.210;21.174;2023-05-23T08:06:25;23.80;43.00
18408;DHT22;9330;52.210;21.174;2023-05-23T08:08:52;23.90;40.60
18408;DHT22;9330;52.210;21.174;2023-05-23T08:11:19;23.90;39.50
18408;DHT22;9330;52.210;21.174;2023-05-23T08:13:46;24.10;43.00
18408;DHT22;9330;52.210;21.174;2023-05-23T08:16:13;24.00;43.80
18408;DHT22;9330;52.210;21.174;2023-05-23T08:18:40;24.00;42.10
18408;DHT22;9330;52.210;21.174;2023-05-23T08:21:08;24.10;41.80
18408;DHT22;9330;52.210;21.174;2023-05-23T08:23:35;24.20;41.20
18408;DHT22;9330;52.210;21.174;2023-05-23T08:26:02;24.10;38.00
18408;DHT22;9330;52.210;21.174;2023-05-23T08:28:29;24.10;40.20
18408;DHT22;9330;52.210;21.174;2023-05-23T08:30:55;24.20;43.50
18408;DHT22;9330;52.210;21.174;2023-05-23T08:33:22;24.10;36.50
18408;DHT22;9330;52.210;21.174;2023-05-23T08:35:49;23.90;39.90
18408;DHT22;9330;52.210;21.174;2023-05-23T08:38:17;23.70;37.10
18408;DHT22;9330;52.210;21.174;2023-05-23T08:40:49;23.70;38.70
18408;DHT22;9330;52.210;21.174;2023-05-23T08:43:17;23.80;38.60
18408;DHT22;9330;52.210;21.174;2023-05-23T08:45:44;23.90;37.80
18408;DHT22;9330;52.210;21.174;2023-05-23T08:48:12;23.80;36.40
18408;DHT22;9330;52.210;21.174;2023-05-23T08:50:46;23.60;37.30
18408;DHT22;9330;52.210;21.174;2023-05-23T08:53:14;23.60;39.30
18408;DHT22;9330;52.210;21.174;2023-05-23T08:55:46;23.50;38.60
18408;DHT22;9330;52.210;21.174;2023-05-23T08:58:16;23.40;37.10
18408;DHT22;9330;52.210;21.174;2023-05-23T09:00:45;23.20;36.90
18408;DHT22;9330;52.210;21.174;2023-05-23T09:03:12;23.10;38.50
18408;DHT22;9330;52.210;21.174;2023-05-23T09:05:40;23.10;42.00
18408;DHT22;9330;52.210;21.174;2023-05-23T09:08:08;23.00;38.80
18408;DHT22;9330;52.210;21.174;2023-05-23T09:10:35;22.80;37.10
18408;DHT22;9330;52.210;21.174;2023-05-23T09:13:04;22.80;39.30
18408;DHT22;9330;52.210;21.174;2023-05-23T09:15:32;23.00;40.80
18408;DHT22;9330;52.210;21.174;2023-05-23T09:17:59;23.00;37.60
18408;DHT22;9330;52.210;21.174;2023-05-23T09:20:28;23.20;39.00
18408;DHT22;9330;52.210;21.174;2023-05-23T09:22:55;23.20;38.10
18408;DHT22;9330;52.210;21.174;2023-05-23T09:25:22;23.20;38.40
18408;DHT22;9330;52.210;21.174;2023-05-23T09:27:51;23.10;37.90
18408;DHT22;9330;52.210;21.174;2023-05-23T09:30:19;22.90;42.20
18408;DHT22;9330;52.210;21.174;2023-05-23T09:32:57;22.90;40.00
18408;DHT22;9330;52.210;21.174;2023-05-23T09:35:27;23.00;39.80
18408;DHT22;9330;52.210;21.174;2023-05-23T09:37:56;23.00;37.80
18408;DHT22;9330;52.210;21.174;2023-05-23T09:40:29;23.10;37.50
18408;DHT22;9330;52.210;21.174;2023-05-23T09:43:01;22.90;36.40
18408;DHT22;9330;52.210;21.174;2023-05-23T09:45:31;22.80;37.50
18408;DHT22;9330;52.210;21.174;2023-05-23T09:47:58;22.90;38.30
18408;DHT22;9330;52.210;21.174;2023-05-23T09:50:30;23.20;40.60
18408;DHT22;9330;52.210;21.174;2023-05-23T09:52:57;23.40;40.30
18408;DHT22;9330;52.210;21.174;2023-05-23T09:55:25;23.70;39.30
18408;DHT22;9330;52.210;21.174;2023-05-23T09:57:53;23.80;36.50
18408;DHT22;9330;52.210;21.174;2023-05-23T10:00:22;24.10;37.50
18408;DHT22;9330;52.210;21.174;2023-05-23T10:03:09;24.10;34.70
18408;DHT22;9330;52.210;21.174;2023-05-23T10:05:40;24.30;36.20
18408;DHT22;9330;52.210;21.174;2023-05-23T10:08:08;24.50;34.80
18408;DHT22;9330;52.210;21.174;2023-05-23T10:13:48;24.20;33.80
18408;DHT22;9330;52.210;21.174;2023-05-23T10:16:19;24.10;34.60
18408;DHT22;9330;52.210;21.174;2023-05-23T10:18:54;24.20;37.30
18408;DHT22;9330;52.210;21.174;2023-05-23T10:21:24;24.30;36.30
18408;DHT22;9330;52.210;21.174;2023-05-23T10:23:53;24.50;34.70
18408;DHT22;9330;52.210;21.174;2023-05-23T10:26:20;24.60;37.30
18408;DHT22;9330;52.210;21.174;2023-05-23T10:28:49;24.70;34.90
18408;DHT22;9330;52.210;21.174;2023-05-23T10:31:16;24.60;34.20
18408;DHT22;9330;52.210;21.174;2023-05-23T10:33:51;24.60;35.70
18408;DHT22;9330;52.210;21.174;2023-05-23T10:36:31;24.50;35.90
18408;DHT22;9330;52.210;21.174;2023-05-23T10:39:03;24.50;34.20
18408;DHT22;9330;52.210;21.174;2023-05-23T10:41:38;24.40;34.20
18408;DHT22;9330;52.210;21.174;2023-05-23T10:44:11;24.50;35.80
18408;DHT22;9330;52.210;21.174;2023-05-23T10:46:50;24.60;33.70
18408;DHT22;9330;52.210;21.174;2023-05-23T10:49:18;24.60;33.80
18408;DHT22;9330;52.210;21.174;2023-05-23T10:51:48;24.70;34.80
18408;DHT22;9330;52.210;21.174;2023-05-23T10:54:17;24.70;34.70
18408;DHT22;9330;52.210;21.174;2023-05-23T10:56:44;24.50;34.80
18408;DHT22;9330;52.210;21.174;2023-05-23T10:59:19;24.40;32.90
18408;DHT22;9330;52.210;21.174;2023-05-23T11:01:50;24.30;34.60
18408;DHT22;9330;52.210;21.174;2023-05-23T11:04:24;24.30;34.20
18408;DHT22;9330;52.210;21.174;2023-05-23T11:06:54;24.40;34.70
18408;DHT22;9330;52.210;21.174;2023-05-23T11:09:22;24.30;33.60
18408;DHT22;9330;52.210;21.174;2023-05-23T11:11:59;24.30;33.90
18408;DHT22;9330;52.210;21.174;2023-05-23T11:17:17;24.60;35.60
18408;DHT22;9330;52.210;21.174;2023-05-23T11:19:59;24.80;38.60
18408;DHT22;9330;52.210;21.174;2023-05-23T11:22:32;24.70;34.90
18408;DHT22;9330;52.210;21.174;2023-05-23T11:25:01;24.90;35.40
18408;DHT22;9330;52.210;21.174;2023-05-23T11:27:33;25.10;36.10
18408;DHT22;9330;52.210;21.174;2023-05-23T11:30:03;25.50;33.10
18408;DHT22;9330;52.210;21.174;2023-05-23T11:32:30;25.80;34.10
18408;DHT22;9330;52.210;21.174;2023-05-23T11:35:01;25.60;33.70
18408;DHT22;9330;52.210;21.174;2023-05-23T11:37:29;25.70;33.50
18408;DHT22;9330;52.210;21.174;2023-05-23T11:39:58;25.80;32.80
18408;DHT22;9330;52.210;21.174;2023-05-23T11:42:26;25.80;33.40
18408;DHT22;9330;52.210;21.174;2023-05-23T11:44:53;25.60;31.10
18408;DHT22;9330;52.210;21.174;2023-05-23T11:47:20;25.50;33.20
18408;DHT22;9330;52.210;21.174;2023-05-23T11:49:47;25.30;34.50
18408;DHT22;9330;52.210;21.174;2023-05-23T11:52:14;25.40;35.10
18408;DHT22;9330;52.210;21.174;2023-05-23T11:54:41;25.60;34.80
18408;DHT22;9330;52.210;21.174;2023-05-23T11:57:11;25.90;33.70
18408;DHT22;9330;52.210;21.174;2023-05-23T11:59:39;25.70;34.10
18408;DHT22;9330;52.210;21.174;2023-05-23T12:02:07;25.60;32.30
18408;DHT22;9330;52.210;21.174;2023-05-23T12:04:34;25.60;34.10
18408;DHT22;9330;52.210;21.174;2023-05-23T12:07:04;25.70;35.10
18408;DHT22;9330;52.210;21.174;2023-05-23T12:09:33;25.70;31.40
18408;DHT22;9330;52.210;21.174;2023-05-23T12:12:06;25.90;32.80
18408;DHT22;9330;52.210;21.174;2023-05-23T12:14:35;26.00;32.80
18408;DHT22;9330;52.210;21.174;2023-05-23T12:17:09;26.20;31.40
18408;DHT22;9330;52.210;21.174;2023-05-23T12:19:37;26.40;31.60
18408;DHT22;9330;52.210;21.174;2023-05-23T12:22:05;26.70;33.20
18408;DHT22;9330;52.210;21.174;2023-05-23T12:24:33;26.80;30.00
18408;DHT22;9330;52.210;21.174;2023-05-23T12:27:01;27.10;30.70
18408;DHT22;9330;52.210;21.174;2023-05-23T12:29:30;27.10;32.30
18408;DHT22;9330;52.210;21.174;2023-05-23T12:32:00;27.40;30.30
18408;DHT22;9330;52.210;21.174;2023-05-23T12:34:27;27.50;30.10
18408;DHT22;9330;52.210;21.174;2023-05-23T12:36:54;27.30;30.50
18408;DHT22;9330;52.210;21.174;2023-05-23T12:39:27;27.50;30.00
18408;DHT22;9330;52.210;21.174;2023-05-23T12:41:54;27.60;30.20
18408;DHT22;9330;52.210;21.174;2023-05-23T12:44:23;27.60;29.40
18408;DHT22;9330;52.210;21.174;2023-05-23T12:46:55;27.50;30.60
18408;DHT22;9330;52.210;21.174;2023-05-23T12:49:24;27.20;31.00
18408;DHT22;9330;52.210;21.174;2023-05-23T12:51:50;27.20;31.40
18408;DHT22;9330;52.210;21.174;2023-05-23T12:54:17;27.10;29.40
18408;DHT22;9330;52.210;21.174;2023-05-23T12:56:45;27.10;29.20
18408;DHT22;9330;52.210;21.174;2023-05-23T12:59:12;27.00;29.50
18408;DHT22;9330;52.210;21.174;2023-05-23T13:01:39;26.80;31.30
18408;DHT22;9330;52.210;21.174;2023-05-23T13:04:06;26.50;30.10
18408;DHT22;9330;52.210;21.174;2023-05-23T13:06:34;26.20;30.40
18408;DHT22;9330;52.210;21.174;2023-05-23T13:09:01;26.00;30.50
18408;DHT22;9330;52.210;21.174;2023-05-23T13:11:28;25.80;29.80
18408;DHT22;9330;52.210;21.174;2023-05-23T13:13:55;25.70;31.30
18408;DHT22;9330;52.210;21.174;2023-05-23T13:16:22;25.50;29.90
18408;DHT22;9330;52.210;21.174;2023-05-23T13:18:49;25.50;31.70
18408;DHT22;9330;52.210;21.174;2023-05-23T13:21:16;25.20;29.70
18408;DHT22;9330;52.210;21.174;2023-05-23T13:23:45;25.10;30.30
18408;DHT22;9330;52.210;21.174;2023-05-23T13:26:12;25.10;31.20
18408;DHT22;9330;52.210;21.174;2023-05-23T13:28:40;25.00;31.80
18408;DHT22;9330;52.210;21.174;2023-05-23T13:31:07;25.00;31.70
18408;DHT22;9330;52.210;21.174;2023-05-23T13:33:33;25.00;31.90
18408;DHT22;9330;52.210;21.174;2023-05-23T13:36:01;24.90;32.40
18408;DHT22;9330;52.210;21.174;2023-05-23T13:38:28;24.70;31.50
18408;DHT22;9330;52.210;21.174;2023-05-23T13:40:58;24.70;31.20
18408;DHT22;9330;52.210;21.174;2023-05-23T13:43:25;24.70;32.30
18408;DHT22;9330;52.210;21.174;2023-05-23T13:45:52;24.50;37.30
18408;DHT22;9330;52.210;21.174;2023-05-23T13:48:18;24.30;32.20
18408;DHT22;9330;52.210;21.174;2023-05-23T13:50:45;24.30;31.50
18408;DHT22;9330;52.210;21.174;2023-05-23T13:53:12;24.10;29.90
18408;DHT22;9330;52.210;21.174;2023-05-23T13:55:41;24.20;31.60
18408;DHT22;9330;52.210;21.174;2023-05-23T13:58:11;24.20;31.50
18408;DHT22;9330;52.210;21.174;2023-05-23T14:00:38;24.20;31.80
18408;DHT22;9330;52.210;21.174;2023-05-23T14:03:05;24.40;33.40
18408;DHT22;9330;52.210;21.174;2023-05-23T14:05:32;24.40;29.70
18408;DHT22;9330;52.210;21.174;2023-05-23T14:08:00;24.30;31.30
18408;DHT22;9330;52.210;21.174;2023-05-23T14:10:27;24.30;31.50
18408;DHT22;9330;52.210;21.174;2023-05-23T14:12:54;24.30;31.70
18408;DHT22;9330;52.210;21.174;2023-05-23T14:15:22;24.40;31.60
18408;DHT22;9330;52.210;21.174;2023-05-23T14:17:49;24.50;31.70
18408;DHT22;9330;52.210;21.174;2023-05-23T14:20:19;24.40;31.70
18408;DHT22;9330;52.210;21.174;2023-05-23T14:22:46;24.40;31.00
18408;DHT22;9330;52.210;21.174;2023-05-23T14:25:13;24.40;32.60
18408;DHT22;9330;52.210;21.174;2023-05-23T14:27:40;24.40;30.80
18408;DHT22;9330;52.210;21.174;2023-05-23T14:30:08;24.30;30.60
18408;DHT22;9330;52.210;21.174;2023-05-23T14:32:36;24.20;31.20
18408;DHT22;9330;52.210;21.174;2023-05-23T14:35:04;24.10;31.30
18408;DHT22;9330;52.210;21.174;2023-05-23T14:37:32;24.10;31.60
18408;DHT22;9330;52.210;21.174;2023-05-23T14:39:59;24.00;30.80
18408;DHT22;9330;52.210;21.174;2023-05-23T14:42:26;23.90;30.60
18408;DHT22;9330;52.210;21.174;2023-05-23T14:44:53;23.90;31.00
18408;DHT22;9330;52.210;21.174;2023-05-23T14:47:20;23.90;31.40
18408;DHT22;9330;52.210;21.174;2023-05-23T14:49:49;23.90;31.00
18408;DHT22;9330;52.210;21.174;2023-05-23T14:52:16;23.80;31.30
18408;DHT22;9330;52.210;21.174;2023-05-23T14:54:43;23.80;31.50
18408;DHT22;9330;52.210;21.174;2023-05-23T14:57:10;23.80;30.90
18408;DHT22;9330;52.210;21.174;2023-05-23T14:59:37;23.80;30.00
18408;DHT22;9330;52.210;21.174;2023-05-23T15:02:04;23.80;30.30
18408;DHT22;9330;52.210;21.174;2023-05-23T15:04:31;23.70;29.90
18408;DHT22;9330;52.210;21.174;2023-05-23T15:07:00;23.70;30.20
18408;DHT22;9330;52.210;21.174;2023-05-23T15:09:27;23.70;30.70
18408;DHT22;9330;52.210;21.174;2023-05-23T15:11:54;23.80;31.50
18408;DHT22;9330;52.210;21.174;2023-05-23T15:14:21;23.80;29.80
18408;DHT22;9330;52.210;21.174;2023-05-23T15:16:53;24.10;29.20
18408;DHT22;9330;52.210;21.174;2023-05-23T15:19:20;24.40;30.00
18408;DHT22;9330;52.210;21.174;2023-05-23T15:21:47;24.70;30.00
18408;DHT22;9330;52.210;21.174;2023-05-23T15:24:15;25.10;29.80
18408;DHT22;9330;52.210;21.174;2023-05-23T15:26:42;25.40;29.90
18408;DHT22;9330;52.210;21.174;2023-05-23T15:29:09;25.50;29.30
18408;DHT22;9330;52.210;21.174;2023-05-23T15:31:37;25.60;29.70
18408;DHT22;9330;52.210;21.174;2023-05-23T15:34:04;25.50;28.60
18408;DHT22;9330;52.210;21.174;2023-05-23T15:36:31;25.40;28.80
18408;DHT22;9330;52.210;21.174;2023-05-23T15:38:58;25.30;29.20
18408;DHT22;9330;52.210;21.174;2023-05-23T15:41:26;25.10;29.60
18408;DHT22;9330;52.210;21.174;2023-05-23T15:43:53;24.90;29.50